Pajarito, New Mexico
Current Conditions -  °F | °C
As of 2:35 AM on Monday 24 Nov 2014 (Local Time) from KLAM Reporting Station
Clear Clear  
Wind Chill: 17°   Ceiling: Unl
Heat Index: 23°   Visibility: 10mi
Dew Point:   Wind: 5mph
Humidity: 44%   Direction: 130°SE
Pressure: 30.05"   Gusts: NA
Location:  35.9775°N, 106.158°W
Report Text: KLAM 240935Z AUTO 13004KT 10SM CLR M05/M15 A3005 RMK AO2 T10501155
Loading
Personal Weather Stations






























Interactive Weather Map New forecast layout! Learn more

10-Day Weather Forecast

Advertisements
Track Severe Weather on mobile